Time;durP1;ratioP1;P1;durP2;ratioP2;P2;SDS_P1;SDS_P2;PMS_P1;PMS_P2;Temp;Humidity;BMP_temperature;BMP_pressure;BME280_temperature;BME280_humidity;BME280_pressure;Samples;Min_cycle;Max_cycle;Signal;HPM_P1;HPM_P2
2021/06/10 00:00:11;;;;;;;25.67;17.17;;;;;;;17.82;100.00;100977.59;5072910;28;20387;-69
2021/06/10 00:02:36;;;;;;;22.37;17.27;;;;;;;17.79;100.00;100969.09;5048155;28;20232;-71
2021/06/10 00:05:04;;;;;;;23.90;16.53;;;;;;;17.83;100.00;100973.97;5072594;28;20918;-68
2021/06/10 00:07:29;;;;;;;23.50;17.57;;;;;;;17.80;100.00;100962.81;5067528;28;20228;-70
2021/06/10 00:09:55;;;;;;;24.53;16.30;;;;;;;17.81;100.00;100959.16;5072776;28;20977;-68
2021/06/10 00:12:20;;;;;;;21.63;16.30;;;;;;;17.74;100.00;100959.72;5071878;28;20184;-71
2021/06/10 00:14:47;;;;;;;22.60;17.07;;;;;;;17.82;100.00;100966.97;5070338;28;20497;-68
2021/06/10 00:17:13;;;;;;;22.80;16.30;;;;;;;17.75;100.00;100958.72;5052791;28;20200;-68
2021/06/10 00:19:39;;;;;;;27.60;15.97;;;;;;;17.74;100.00;100953.56;5060203;28;20407;-68
2021/06/10 00:22:04;;;;;;;20.90;15.57;;;;;;;17.77;100.00;100947.16;5057747;28;20243;-69
2021/06/10 00:24:30;;;;;;;19.50;15.07;;;;;;;17.76;100.00;100956.94;5057424;28;20189;-68
2021/06/10 00:26:55;;;;;;;25.37;16.83;;;;;;;17.75;100.00;100955.25;5067751;28;20161;-69
2021/06/10 00:29:21;;;;;;;19.50;15.57;;;;;;;17.75;100.00;100945.44;5071676;28;20160;-69
2021/06/10 00:31:47;;;;;;;27.27;15.03;;;;;;;17.78;100.00;100949.66;5072013;28;20161;-69
2021/06/10 00:34:14;;;;;;;22.90;14.10;;;;;;;17.80;100.00;100950.34;5070616;28;20658;-66
2021/06/10 00:36:40;;;;;;;22.60;13.47;;;;;;;17.77;100.00;100942.66;5057965;28;20869;-68
2021/06/10 00:39:05;;;;;;;19.90;15.40;;;;;;;17.74;100.00;100943.78;5058028;28;20526;-70
2021/06/10 00:41:33;;;;;;;19.13;13.10;;;;;;;17.78;100.00;100944.34;5057143;28;20229;-69
2021/06/10 00:43:59;;;;;;;16.73;12.87;;;;;;;17.80;100.00;100939.72;5037450;28;20161;-69
2021/06/10 00:46:26;;;;;;;16.63;12.53;;;;;;;17.76;100.00;100941.00;5066583;28;20399;-70
2021/06/10 00:48:52;;;;;;;16.40;14.00;;;;;;;17.73;100.00;100935.94;5066192;28;20488;-69
2021/06/10 00:51:17;;;;;;;17.83;13.40;;;;;;;17.70;100.00;100936.22;5051014;28;20835;-70
2021/06/10 00:53:43;;;;;;;18.73;13.97;;;;;;;17.69;100.00;100939.88;5055341;28;20701;-69
2021/06/10 00:56:11;;;;;;;21.13;15.03;;;;;;;17.73;100.00;100935.94;5070178;28;20241;-68
2021/06/10 00:58:37;;;;;;;19.60;16.30;;;;;;;17.68;100.00;100928.41;5057349;28;20157;-70
2021/06/10 01:01:02;;;;;;;21.03;17.90;;;;;;;17.71;100.00;100927.28;5068466;28;20465;-69
2021/06/10 01:03:28;;;;;;;20.10;16.47;;;;;;;17.72;100.00;100921.81;5069158;28;20928;-71
2021/06/10 01:05:58;;;;;;;20.80;15.47;;;;;;;17.72;100.00;100924.47;5069138;28;20207;-69
2021/06/10 01:08:35;;;;;;;23.83;17.30;;;;;;;17.69;100.00;100921.25;5068224;28;20164;-69
2021/06/10 01:11:38;;;;;;;18.30;13.83;;;;;;;17.67;100.00;100924.03;5068225;28;20476;-69
2021/06/10 01:14:30;;;;;;;20.33;13.87;;;;;;;17.63;100.00;100919.16;5069820;28;20403;-69
2021/06/10 01:16:58;;;;;;;17.87;13.87;;;;;;;17.56;100.00;100926.03;5069010;28;20454;-68
2021/06/10 01:19:48;;;;;;;28.27;15.10;;;;;;;17.52;100.00;100925.47;5063496;28;20452;-69
2021/06/10 01:22:40;;;;;;;31.10;16.40;;;;;;;17.49;100.00;100923.09;5054809;28;20793;-69
2021/06/10 01:25:14;;;;;;;26.57;16.43;;;;;;;17.44;100.00;100920.88;5039095;28;20430;-69
2021/06/10 01:27:45;;;;;;;34.23;15.80;;;;;;;17.44;100.00;100920.03;5069513;28;20402;-70
2021/06/10 01:30:15;;;;;;;24.10;18.20;;;;;;;17.43;100.00;100923.66;5054808;28;20562;-70
2021/06/10 01:32:46;;;;;;;28.23;17.50;;;;;;;17.42;100.00;100916.69;5049929;28;21205;-69
2021/06/10 01:35:14;;;;;;;30.03;16.30;;;;;;;17.41;100.00;100913.19;5058966;28;20407;-70
2021/06/10 01:37:42;;;;;;;27.07;17.93;;;;;;;17.38;100.00;100904.66;5071442;28;21137;-70
2021/06/10 01:40:08;;;;;;;30.07;18.87;;;;;;;17.41;100.00;100899.91;5071537;28;20402;-69
2021/06/10 01:42:38;;;;;;;26.47;17.50;;;;;;;17.40;100.00;100903.56;5059378;28;20404;-69
2021/06/10 01:45:05;;;;;;;28.10;16.30;;;;;;;17.39;100.00;100907.19;5064110;28;20406;-70
2021/06/10 01:47:31;;;;;;;28.20;18.23;;;;;;;17.39;100.00;100901.88;5070901;28;20414;-68
2021/06/10 01:49:57;;;;;;;30.70;19.80;;;;;;;17.32;100.00;100899.94;5071290;28;20479;-71
2021/06/10 01:52:24;;;;;;;29.23;18.43;;;;;;;17.29;100.00;100901.03;5052747;28;20430;-69
2021/06/10 01:54:51;;;;;;;36.17;16.97;;;;;;;17.23;100.00;100906.94;5071003;28;20891;-70
2021/06/10 01:57:17;;;;;;;34.63;20.00;;;;;;;17.21;100.00;100898.25;5070635;28;21097;-69
2021/06/10 01:59:43;;;;;;;32.40;17.70;;;;;;;17.22;100.00;100893.78;5071152;28;20465;-71
2021/06/10 02:02:09;;;;;;;28.47;17.17;;;;;;;17.23;100.00;100892.78;5071264;28;20999;-70
2021/06/10 02:04:36;;;;;;;25.43;16.40;;;;;;;17.20;100.00;100902.72;5070935;28;20439;-70
2021/06/10 02:07:03;;;;;;;27.70;16.60;;;;;;;17.16;100.00;100901.34;5070945;28;20901;-70
2021/06/10 02:09:29;;;;;;;24.00;15.80;;;;;;;17.21;100.00;100903.56;5065796;28;20403;-70
2021/06/10 02:11:56;;;;;;;31.10;17.70;;;;;;;17.23;100.00;100901.63;5052941;28;20477;-70
2021/06/10 02:14:22;;;;;;;20.77;15.90;;;;;;;17.22;100.00;100905.25;5071127;28;20395;-70
2021/06/10 02:16:49;;;;;;;21.87;15.57;;;;;;;17.23;100.00;100898.09;5070684;28;20546;-69
2021/06/10 02:19:16;;;;;;;20.40;14.53;;;;;;;17.25;100.00;100894.34;5070863;28;20433;-70
2021/06/10 02:21:42;;;;;;;26.37;14.70;;;;;;;17.28;100.00;100888.75;5070896;28;20399;-69
2021/06/10 02:24:10;;;;;;;21.80;14.77;;;;;;;17.29;100.00;100887.75;5070096;28;20421;-70
2021/06/10 02:26:37;;;;;;;17.20;11.50;;;;;;;17.29;100.00;100898.38;5071080;28;20240;-72
2021/06/10 02:29:04;;;;;;;23.00;15.33;;;;;;;17.31;100.00;100896.44;5070163;28;20502;-71
2021/06/10 02:31:30;;;;;;;28.13;12.40;;;;;;;17.32;100.00;100898.13;5070635;28;20406;-71
2021/06/10 02:33:55;;;;;;;22.83;14.40;;;;;;;17.32;100.00;100910.56;5070745;28;21008;-72
2021/06/10 02:36:21;;;;;;;27.40;14.70;;;;;;;17.35;100.00;100910.25;5070893;28;20279;-70
2021/06/10 02:38:54;;;;;;;21.43;14.40;;;;;;;17.37;100.00;100903.81;5070514;28;20164;-69
2021/06/10 02:41:26;;;;;;;32.00;14.37;;;;;;;17.45;100.00;100911.06;5057808;28;20164;-71
2021/06/10 02:43:53;;;;;;;23.90;14.53;;;;;;;17.47;100.00;100906.47;5070292;28;20418;-70
2021/06/10 02:46:19;;;;;;;22.17;14.00;;;;;;;17.40;100.00;100908.88;5063121;28;20920;-71
2021/06/10 02:48:47;;;;;;;19.60;14.27;;;;;;;17.45;100.00;100911.91;5054432;28;20932;-71
2021/06/10 02:51:13;;;;;;;22.83;14.13;;;;;;;17.53;100.00;100905.03;5056544;28;20411;-70
2021/06/10 02:53:40;;;;;;;18.73;13.23;;;;;;;17.56;100.00;100902.97;5074784;28;20452;-71
2021/06/10 02:56:08;;;;;;;24.73;12.50;;;;;;;17.58;100.00;100906.31;5052230;28;20446;-70
2021/06/10 02:58:37;;;;;;;16.97;12.37;;;;;;;17.62;100.00;100896.25;5074163;28;20395;-71
2021/06/10 03:01:08;;;;;;;13.23;11.03;;;;;;;17.67;100.00;100900.13;5055140;28;20411;-71
2021/06/10 03:03:36;;;;;;;16.40;10.57;;;;;;;17.77;100.00;100900.13;5071871;28;20491;-69
2021/06/10 03:06:05;;;;;;;22.23;11.27;;;;;;;17.86;100.00;100890.44;5055176;28;20411;-71
2021/06/10 03:08:31;;;;;;;14.27;10.93;;;;;;;17.95;100.00;100893.06;5068064;28;20410;-71
2021/06/10 03:11:00;;;;;;;13.10;9.93;;;;;;;18.02;100.00;100903.97;5073522;28;20390;-70
2021/06/10 03:13:28;;;;;;;10.50;7.13;;;;;;;18.00;100.00;100904.09;5073452;28;20537;-69
2021/06/10 03:15:55;;;;;;;10.77;8.50;;;;;;;18.18;100.00;100896.19;5074176;28;20469;-71
2021/06/10 03:18:21;;;;;;;12.37;7.90;;;;;;;18.27;100.00;100894.44;5074384;28;20773;-71
2021/06/10 03:20:46;;;;;;;13.87;8.00;;;;;;;18.37;100.00;100886.44;5074058;28;20408;-71
2021/06/10 03:23:13;;;;;;;8.50;7.00;;;;;;;18.47;100.00;100892.53;5068979;28;20780;-67
2021/06/10 03:25:40;;;;;;;12.90;6.00;;;;;;;18.57;100.00;100888.78;5073753;28;20157;-70
2021/06/10 03:28:07;;;;;;;9.40;6.40;;;;;;;18.79;100.00;100882.22;5073836;28;20399;-71
2021/06/10 03:30:37;;;;;;;12.00;6.43;;;;;;;18.95;100.00;100876.22;5073730;28;20410;-71
2021/06/10 03:33:05;;;;;;;8.43;6.50;;;;;;;19.12;100.00;100877.19;5073502;28;20398;-71
2021/06/10 03:35:35;;;;;;;9.30;5.70;;;;;;;19.21;100.00;100880.75;5062368;28;20403;-70
2021/06/10 03:38:06;;;;;;;8.37;6.30;;;;;;;19.32;100.00;100884.00;5073614;28;20441;-70
2021/06/10 03:40:35;;;;;;;9.87;6.37;;;;;;;19.39;100.00;100884.22;5072393;28;20415;-71
2021/06/10 03:43:03;;;;;;;9.00;6.40;;;;;;;19.41;100.00;100882.22;5072752;28;20419;-69
2021/06/10 03:45:29;;;;;;;6.67;5.57;;;;;;;19.43;100.00;100879.41;5040223;28;20455;-70
2021/06/10 03:47:55;;;;;;;7.80;5.37;;;;;;;19.45;100.00;100894.25;5053774;28;20979;-70
2021/06/10 03:50:22;;;;;;;8.33;5.80;;;;;;;19.50;100.00;100885.81;5060472;28;20427;-70
2021/06/10 03:52:48;;;;;;;8.17;5.30;;;;;;;19.53;100.00;100888.13;5072575;28;20160;-71
2021/06/10 03:55:14;;;;;;;9.17;4.97;;;;;;;19.57;100.00;100882.38;5071964;28;20436;-71
2021/06/10 03:57:40;;;;;;;6.80;5.70;;;;;;;19.58;100.00;100885.88;5067527;28;20458;-70
2021/06/10 04:00:08;;;;;;;6.60;5.20;;;;;;;19.58;100.00;100883.22;5073426;28;20403;-70
2021/06/10 04:02:33;;;;;;;10.17;6.63;;;;;;;19.53;100.00;100886.31;5073065;28;20212;-71
2021/06/10 04:04:59;;;;;;;9.27;5.57;;;;;;;19.56;100.00;100893.16;5072395;28;20460;-71
2021/06/10 04:07:25;;;;;;;6.87;4.97;;;;;;;19.58;100.00;100892.03;5055171;28;20173;-71
2021/06/10 04:09:50;;;;;;;6.93;5.77;;;;;;;19.60;100.00;100886.56;5071725;28;20180;-72
2021/06/10 04:12:15;;;;;;;10.53;6.00;;;;;;;19.67;100.00;100904.44;5054139;28;20192;-69
2021/06/10 04:14:41;;;;;;;10.17;6.60;;;;;;;19.68;100.00;100890.09;5070462;28;20641;-70
2021/06/10 04:17:06;;;;;;;11.70;5.70;;;;;;;19.71;100.00;100888.94;5071825;28;20275;-69
2021/06/10 04:19:32;;;;;;;9.80;6.93;;;;;;;19.79;100.00;100888.16;5072586;28;20172;-71
2021/06/10 04:21:57;;;;;;;8.40;6.80;;;;;;;19.80;100.00;100889.81;5072175;28;20161;-71
2021/06/10 04:24:23;;;;;;;11.57;7.27;;;;;;;19.83;100.00;100894.84;5072122;28;20176;-71
2021/06/10 04:26:49;;;;;;;6.43;5.50;;;;;;;19.90;100.00;100888.72;5072292;28;20165;-69
2021/06/10 04:29:14;;;;;;;9.27;6.00;;;;;;;19.97;100.00;100891.59;5072446;28;20643;-71
2021/06/10 04:31:40;;;;;;;8.13;5.97;;;;;;;19.97;100.00;100893.41;5066553;28;20549;-69
2021/06/10 04:34:06;;;;;;;11.10;6.80;;;;;;;20.06;100.00;100897.78;5072179;28;20811;-70
2021/06/10 04:36:31;;;;;;;13.60;6.07;;;;;;;20.06;100.00;100887.13;5072374;28;20296;-70
2021/06/10 04:38:57;;;;;;;13.47;6.37;;;;;;;20.11;100.00;100892.81;5072485;28;20156;-71
2021/06/10 04:41:22;;;;;;;13.87;6.57;;;;;;;20.23;100.00;100894.19;5059439;28;20165;-69
2021/06/10 04:43:48;;;;;;;8.80;5.40;;;;;;;20.30;100.00;100894.38;5072025;28;20227;-70
2021/06/10 04:46:14;;;;;;;10.60;5.73;;;;;;;20.34;100.00;100887.72;5071640;28;20513;-72
2021/06/10 04:48:39;;;;;;;7.80;6.40;;;;;;;20.46;100.00;100891.78;5072550;28;20172;-71
2021/06/10 04:51:05;;;;;;;13.97;9.00;;;;;;;20.62;100.00;100889.16;5070044;28;20619;-70
2021/06/10 04:53:31;;;;;;;15.57;6.23;;;;;;;20.75;100.00;100883.34;5065681;28;20234;-71
2021/06/10 04:55:57;;;;;;;9.57;6.83;;;;;;;20.88;100.00;100885.53;5042566;28;20443;-69
2021/06/10 04:58:22;;;;;;;12.73;5.80;;;;;;;21.04;100.00;100888.19;5071323;28;20233;-71
2021/06/10 05:00:48;;;;;;;7.13;5.50;;;;;;;21.20;100.00;100882.84;5054482;28;20239;-71
2021/06/10 05:03:14;;;;;;;11.63;6.20;;;;;;;21.29;100.00;100887.22;5071892;28;20697;-70
2021/06/10 05:05:39;;;;;;;7.00;5.70;;;;;;;21.45;100.00;100890.88;5069243;28;20188;-70
2021/06/10 05:08:05;;;;;;;8.73;5.70;;;;;;;21.78;100.00;100884.44;5070566;28;20576;-71
2021/06/10 05:10:31;;;;;;;11.37;5.90;;;;;;;21.91;100.00;100889.25;5054224;28;20168;-70
2021/06/10 05:12:57;;;;;;;10.77;6.93;;;;;;;22.08;100.00;100892.75;5066892;28;20404;-71
2021/06/10 05:15:22;;;;;;;15.70;10.40;;;;;;;22.19;100.00;100889.66;5056100;28;20164;-68
2021/06/10 05:17:49;;;;;;;11.63;6.13;;;;;;;22.36;100.00;100887.75;5066338;28;20646;-72
2021/06/10 05:20:15;;;;;;;8.83;6.37;;;;;;;22.50;100.00;100887.00;5070783;28;20682;-71
2021/06/10 05:22:41;;;;;;;9.53;6.30;;;;;;;22.50;100.00;100889.66;5071106;28;20468;-71
2021/06/10 05:25:07;;;;;;;11.57;5.87;;;;;;;22.51;100.00;100887.81;5069661;28;20418;-70
2021/06/10 05:27:34;;;;;;;10.70;9.07;;;;;;;22.58;100.00;100878.06;5066079;28;20247;-70
2021/06/10 05:30:00;;;;;;;9.60;6.77;;;;;;;22.75;100.00;100885.00;5070554;28;20432;-70
2021/06/10 05:32:27;;;;;;;7.13;5.37;;;;;;;22.62;100.00;100893.63;5049964;28;20426;-71
2021/06/10 05:34:52;;;;;;;9.57;6.30;;;;;;;22.59;100.00;100899.31;5070390;28;20417;-70
2021/06/10 05:37:18;;;;;;;9.00;6.17;;;;;;;22.48;100.00;100893.56;5070807;28;20446;-71
2021/06/10 05:39:43;;;;;;;7.30;5.67;;;;;;;22.55;100.00;100897.19;5046222;28;20180;-71
2021/06/10 05:42:10;;;;;;;7.20;5.77;;;;;;;22.57;100.00;100896.00;5051142;28;20234;-71
2021/06/10 05:44:35;;;;;;;7.10;5.87;;;;;;;22.39;100.00;100888.25;5033225;28;20709;-68
2021/06/10 05:47:01;;;;;;;7.33;5.93;;;;;;;22.21;100.00;100895.69;5061288;28;20415;-71
2021/06/10 05:49:26;;;;;;;8.13;6.23;;;;;;;22.30;100.00;100901.84;5071514;28;20545;-70
2021/06/10 05:51:52;;;;;;;10.77;6.47;;;;;;;22.43;100.00;100896.75;5070786;28;20217;-70
2021/06/10 05:54:17;;;;;;;7.60;6.00;;;;;;;22.57;100.00;100892.47;5070667;28;20234;-71
2021/06/10 05:56:43;;;;;;;8.73;6.60;;;;;;;22.77;100.00;100899.06;5071407;28;20638;-71
2021/06/10 05:59:13;;;;;;;8.13;5.00;;;;;;;22.83;100.00;100894.84;5071186;28;20199;-68
2021/06/10 06:01:39;;;;;;;9.77;6.53;;;;;;;22.62;100.00;100898.97;5070711;28;20709;-71
2021/06/10 06:04:04;;;;;;;7.87;5.40;;;;;;;22.65;100.00;100889.75;5070758;28;20411;-71
2021/06/10 06:06:30;;;;;;;8.50;5.33;;;;;;;22.81;100.00;100899.53;5070330;28;20666;-70
2021/06/10 06:08:55;;;;;;;7.63;5.03;;;;;;;22.99;100.00;100897.44;5069642;28;20164;-71
2021/06/10 06:11:21;;;;;;;8.10;5.67;;;;;;;23.13;100.00;100902.00;5070482;28;20191;-72
2021/06/10 06:13:48;;;;;;;7.30;4.87;;;;;;;23.26;100.00;100899.53;5070653;28;20255;-71
2021/06/10 06:16:16;;;;;;;8.10;5.20;;;;;;;23.34;100.00;100906.66;5070050;28;20267;-68
2021/06/10 06:18:42;;;;;;;9.40;5.13;;;;;;;23.32;100.00;100911.38;5048895;28;20901;-71
2021/06/10 06:21:08;;;;;;;6.83;5.40;;;;;;;23.18;100.00;100907.63;5069311;28;20414;-71
2021/06/10 06:23:33;;;;;;;7.23;5.03;;;;;;;23.34;100.00;100913.88;5070706;28;20539;-71
2021/06/10 06:26:00;;;;;;;9.83;5.63;;;;;;;23.46;100.00;100904.38;5070632;28;20182;-71
2021/06/10 06:28:26;;;;;;;8.23;5.57;;;;;;;23.49;100.00;100904.84;5070790;28;20160;-71
2021/06/10 06:30:51;;;;;;;6.60;5.60;;;;;;;23.72;100.00;100896.75;5065726;28;20426;-68
2021/06/10 06:33:31;;;;;;;7.67;5.80;;;;;;;23.84;100.00;100905.19;5070121;28;20406;-72
2021/06/10 06:35:57;;;;;;;7.17;5.30;;;;;;;23.65;100.00;100913.78;5051407;28;20195;-71
2021/06/10 06:38:22;;;;;;;6.87;5.33;;;;;;;23.68;100.00;100906.19;5068517;28;20411;-69
2021/06/10 06:40:48;;;;;;;7.33;5.40;;;;;;;23.92;100.00;100915.81;5069146;28;20176;-72
2021/06/10 06:43:15;;;;;;;10.77;6.00;;;;;;;24.22;100.00;100915.81;5066202;28;20157;-70
2021/06/10 06:45:42;;;;;;;5.77;5.17;;;;;;;24.31;100.00;100909.31;5050408;28;20395;-68
2021/06/10 06:48:08;;;;;;;9.40;4.77;;;;;;;24.33;100.00;100916.22;5050329;28;20400;-69
2021/06/10 06:50:34;;;;;;;8.43;5.33;;;;;;;24.43;100.00;100904.31;5050846;28;20425;-70
2021/06/10 06:53:00;;;;;;;8.40;4.83;;;;;;;24.60;100.00;100909.28;5049549;28;20396;-71
2021/06/10 06:55:25;;;;;;;6.93;5.50;;;;;;;24.71;100.00;100910.66;5050062;28;20415;-70
2021/06/10 06:57:51;;;;;;;5.77;5.17;;;;;;;24.97;100.00;100911.91;5032143;28;20189;-70
2021/06/10 07:00:17;;;;;;;9.10;4.97;;;;;;;25.17;100.00;100911.13;5050100;28;20668;-71
2021/06/10 07:02:43;;;;;;;9.23;5.03;;;;;;;25.26;100.00;100913.66;5059638;28;20208;-69
2021/06/10 07:05:10;;;;;;;8.63;4.90;;;;;;;25.39;100.00;100916.44;5070153;28;20430;-72
2021/06/10 07:07:36;;;;;;;10.57;5.50;;;;;;;25.60;100.00;100916.41;5070062;28;20402;-72
2021/06/10 07:10:01;;;;;;;7.30;4.90;;;;;;;25.61;100.00;100923.44;5069625;28;20429;-69
2021/06/10 07:12:27;;;;;;;5.53;4.53;;;;;;;25.43;100.00;100926.63;5055226;28;20219;-71
2021/06/10 07:14:52;;;;;;;6.73;4.53;;;;;;;25.37;100.00;100921.19;5050535;28;20168;-70
2021/06/10 07:17:18;;;;;;;9.70;5.77;;;;;;;25.64;100.00;100928.44;5050730;28;20200;-69
2021/06/10 07:19:44;;;;;;;9.67;4.97;;;;;;;25.81;100.00;100917.41;5062308;28;20634;-71
2021/06/10 07:22:10;;;;;;;6.70;4.80;;;;;;;25.97;100.00;100917.06;5050273;28;20176;-72
2021/06/10 07:24:35;;;;;;;11.40;4.30;;;;;;;25.87;100.00;100919.31;5059302;28;20780;-69
2021/06/10 07:27:01;;;;;;;7.10;5.20;;;;;;;25.84;100.00;100933.16;5069839;28;20157;-69
2021/06/10 07:29:27;;;;;;;7.03;4.90;;;;;;;25.78;100.00;100934.78;5070069;28;20222;-67
2021/06/10 07:31:52;;;;;;;8.57;4.73;;;;;;;25.57;100.00;100932.94;5070765;28;20161;-71
2021/06/10 07:34:18;;;;;;;5.70;4.33;;;;;;;25.45;100.00;100929.94;5072366;28;20157;-69
2021/06/10 07:36:43;;;;;;;6.40;4.73;;;;;;;25.50;100.00;100936.63;5072609;28;20196;-71
2021/06/10 07:39:10;;;;;;;5.23;4.60;;;;;;;25.81;100.00;100939.75;5054722;28;20661;-70
2021/06/10 07:41:37;;;;;;;6.50;4.33;;;;;;;26.11;100.00;100928.75;5072597;28;20157;-72
2021/06/10 07:44:03;;;;;;;6.80;4.40;;;;;;;26.17;100.00;100928.78;5072991;28;20441;-71
2021/06/10 07:46:29;;;;;;;5.97;4.80;;;;;;;26.26;100.00;100935.66;5071860;28;20422;-71
2021/06/10 07:48:55;;;;;;;5.60;5.00;;;;;;;26.09;100.00;100928.97;5072357;28;20446;-72
2021/06/10 07:51:20;;;;;;;5.10;4.30;;;;;;;26.11;100.00;100934.13;5072534;28;20149;-72
2021/06/10 07:53:46;;;;;;;8.83;4.97;;;;;;;26.05;100.00;100933.06;5054412;28;20421;-72
2021/06/10 07:56:12;;;;;;;6.20;4.90;;;;;;;26.29;100.00;100931.72;5072391;28;20196;-71
2021/06/10 07:58:37;;;;;;;7.43;4.83;;;;;;;26.33;100.00;100927.63;5072253;28;20619;-71
2021/06/10 08:01:04;;;;;;;5.17;4.47;;;;;;;26.25;100.00;100938.56;5072368;28;20243;-71
2021/06/10 08:03:30;;;;;;;5.93;5.07;;;;;;;26.27;100.00;100926.53;5072960;28;20252;-70
2021/06/10 08:05:59;;;;;;;7.23;5.00;;;;;;;26.22;100.00;100938.94;5054010;28;20446;-71
2021/06/10 08:08:24;;;;;;;6.30;4.20;;;;;;;26.46;100.00;100938.47;5071913;28;21198;-71
2021/06/10 08:10:52;;;;;;;8.10;4.77;;;;;;;26.43;100.00;100941.56;5054113;28;21004;-71
2021/06/10 08:13:21;;;;;;;6.53;4.10;;;;;;;26.42;100.00;100942.59;5071891;28;20170;-71
2021/06/10 08:15:51;;;;;;;6.73;4.80;;;;;;;26.52;100.00;100940.34;5053958;28;20421;-70
2021/06/10 08:18:19;;;;;;;8.20;6.57;;;;;;;26.69;100.00;100953.50;5071808;28;20391;-72
2021/06/10 08:20:45;;;;;;;5.20;4.67;;;;;;;26.65;100.00;100950.34;5072103;28;20803;-72
2021/06/10 08:23:11;;;;;;;4.97;4.03;;;;;;;26.65;100.00;100953.03;5072284;28;20972;-69
2021/06/10 08:25:43;;;;;;;6.20;5.20;;;;;;;26.79;100.00;100965.53;5071810;28;20442;-72
2021/06/10 08:28:09;;;;;;;16.37;5.10;;;;;;;26.88;100.00;100960.78;5071679;28;20165;-71
2021/06/10 08:30:34;;;;;;;5.60;4.90;;;;;;;27.07;100.00;100964.59;5071978;28;20454;-71
2021/06/10 08:33:00;;;;;;;5.70;5.10;;;;;;;27.21;100.00;100968.97;5071679;28;20415;-71
2021/06/10 08:35:25;;;;;;;8.20;5.67;;;;;;;27.05;100.00;100969.34;5071284;28;20164;-71
2021/06/10 08:37:51;;;;;;;7.77;5.67;;;;;;;26.95;100.00;100966.19;5071670;28;20279;-71
2021/06/10 08:40:17;;;;;;;7.27;5.40;;;;;;;26.77;100.00;100977.56;5071274;28;20618;-71
2021/06/10 08:42:44;;;;;;;6.37;4.90;;;;;;;26.83;100.00;100976.75;5071194;28;20514;-70
2021/06/10 08:45:12;;;;;;;7.23;5.43;;;;;;;26.88;100.00;100978.84;5070465;28;20157;-72
2021/06/10 08:47:39;;;;;;;7.67;5.63;;;;;;;27.08;100.00;100977.88;5070912;28;20532;-72
2021/06/10 08:50:07;;;;;;;6.63;4.63;;;;;;;27.40;100.00;100979.97;5071373;28;20716;-72
2021/06/10 08:52:33;;;;;;;6.10;5.07;;;;;;;27.52;100.00;100979.16;5053166;28;20928;-72
2021/06/10 08:54:59;;;;;;;8.47;5.67;;;;;;;27.45;100.00;100977.50;5071637;28;20452;-71
2021/06/10 08:57:24;;;;;;;8.60;4.53;;;;;;;27.16;100.00;100979.56;5052720;28;21413;-71
2021/06/10 08:59:50;;;;;;;14.63;5.87;;;;;;;27.08;100.00;100993.25;5070968;28;20403;-71
2021/06/10 09:02:15;;;;;;;7.03;5.40;;;;;;;26.81;100.00;100989.59;5070498;28;20204;-71
2021/06/10 09:04:41;;;;;;;6.77;5.40;;;;;;;26.76;100.00;100990.22;5070668;28;20199;-71
2021/06/10 09:07:09;;;;;;;9.20;5.83;;;;;;;26.70;100.00;100995.59;5070945;28;20256;-69
2021/06/10 09:09:41;;;;;;;9.40;5.30;;;;;;;26.71;100.00;100994.56;5070743;28;20395;-70
2021/06/10 09:12:10;;;;;;;6.30;5.20;;;;;;;26.62;100.00;100991.22;5052292;28;20419;-69
2021/06/10 09:14:57;;;;;;;8.70;7.23;;;;;;;27.19;100.00;100987.22;5070907;28;20410;-70
2021/06/10 09:17:34;;;;;;;8.33;4.87;;;;;;;27.57;100.00;100981.22;5069968;28;20453;-74
2021/06/10 09:20:00;;;;;;;5.93;5.33;;;;;;;27.81;100.00;100982.47;5054865;28;20410;-73
2021/06/10 09:22:35;;;;;;;11.57;6.90;;;;;;;28.03;100.00;100978.50;5066415;28;20539;-70
2021/06/10 09:25:12;;;;;;;8.80;7.87;;;;;;;27.96;100.00;100976.84;5070331;28;20394;-70
2021/06/10 09:28:01;;;;;;;6.60;5.60;;;;;;;27.73;100.00;100988.94;5070004;28;20393;-71
2021/06/10 09:30:33;;;;;;;6.43;5.67;;;;;;;27.20;100.00;100985.34;5051513;28;20973;-72
2021/06/10 09:33:01;;;;;;;7.33;5.60;;;;;;;26.65;100.00;100998.06;5069858;28;20417;-73
2021/06/10 09:35:29;;;;;;;11.03;5.80;;;;;;;26.28;100.00;100994.75;5069166;28;20422;-71
2021/06/10 09:37:59;;;;;;;7.93;5.73;;;;;;;26.06;100.00;100998.53;5049799;28;20936;-71
2021/06/10 09:40:25;;;;;;;5.87;5.20;;;;;;;25.96;100.00;100999.72;5049517;28;20465;-72
2021/06/10 09:42:51;;;;;;;5.53;4.80;;;;;;;25.95;100.00;100999.94;5050045;28;20839;-71
2021/06/10 09:45:19;;;;;;;6.70;5.70;;;;;;;25.89;100.00;100998.84;5050042;28;20858;-69
2021/06/10 09:47:49;;;;;;;7.70;5.97;;;;;;;25.91;100.00;100993.25;5069761;28;20251;-69
2021/06/10 09:50:35;;;;;;;7.10;5.30;;;;;;;25.96;100.00;100988.97;5070105;28;20477;-72
2021/06/10 09:53:04;;;;;;;6.80;5.00;;;;;;;26.14;100.00;100983.06;5069723;28;20759;-72
2021/06/10 09:55:36;;;;;;;6.57;5.57;;;;;;;26.22;100.00;100982.06;5068830;28;20414;-74
2021/06/10 09:58:13;;;;;;;18.03;15.17;;;;;;;26.41;100.00;100977.84;5043259;28;20486;-72
2021/06/10 10:00:48;;;;;;;11.30;6.10;;;;;;;26.70;100.00;100976.72;5059136;28;20415;-69
2021/06/10 10:03:28;;;;;;;6.90;5.40;;;;;;;27.01;100.00;100971.59;5054448;28;20466;-68
2021/06/10 10:05:57;;;;;;;7.10;6.00;;;;;;;27.35;100.00;100973.31;5062145;28;21044;-72
2021/06/10 10:08:24;;;;;;;7.73;5.80;;;;;;;27.28;100.00;100980.63;5064979;28;20418;-71
2021/06/10 10:10:50;;;;;;;7.63;6.20;;;;;;;27.20;100.00;100986.19;5057637;28;20557;-73
2021/06/10 10:13:17;;;;;;;7.60;5.70;;;;;;;26.97;100.00;100993.78;5069101;28;20414;-69
2021/06/10 10:15:44;;;;;;;30.03;25.43;;;;;;;26.79;100.00;100986.28;5063905;28;20399;-69
2021/06/10 10:18:11;;;;;;;9.90;5.80;;;;;;;26.76;100.00;100997.50;5069034;28;20410;-72
2021/06/10 10:20:39;;;;;;;18.47;16.83;;;;;;;26.39;100.00;100982.59;5068631;28;20434;-69
2021/06/10 10:23:06;;;;;;;7.43;6.00;;;;;;;26.46;100.00;100988.88;5067718;28;20425;-71
2021/06/10 10:25:32;;;;;;;7.37;6.00;;;;;;;26.44;100.00;100997.13;5069259;28;20414;-70
2021/06/10 10:28:07;;;;;;;14.70;12.67;;;;;;;26.50;100.00;100982.84;5068467;28;20414;-71
2021/06/10 10:30:32;;;;;;;7.77;5.50;;;;;;;26.40;100.00;100992.34;5052933;28;20712;-72
2021/06/10 10:33:12;;;;;;;7.60;5.53;;;;;;;26.25;100.00;100993.28;5049239;28;20400;-72
2021/06/10 10:35:37;;;;;;;11.43;5.97;;;;;;;26.22;100.00;100990.13;5060882;28;20287;-71
2021/06/10 10:38:11;;;;;;;7.27;5.67;;;;;;;26.02;100.00;100992.72;5069257;28;20446;-72
2021/06/10 10:40:40;;;;;;;12.63;11.33;;;;;;;25.84;100.00;100998.59;5069375;28;20157;-72
2021/06/10 10:43:14;;;;;;;8.07;7.27;;;;;;;25.67;100.00;100995.34;5069621;28;20815;-70
2021/06/10 10:45:46;;;;;;;12.03;6.90;;;;;;;25.51;100.00;100994.78;5053817;28;20407;-69
2021/06/10 10:48:15;;;;;;;12.00;9.10;;;;;;;25.59;100.00;100995.47;5056261;28;20407;-73
2021/06/10 10:50:44;;;;;;;9.40;7.33;;;;;;;25.54;100.00;101007.84;5069231;28;20426;-73
2021/06/10 10:53:15;;;;;;;16.20;7.90;;;;;;;25.25;100.00;101004.31;5068007;28;20794;-72
2021/06/10 10:55:42;;;;;;;23.13;9.60;;;;;;;24.59;100.00;101008.91;5061972;28;20913;-74
2021/06/10 10:58:16;;;;;;;15.30;8.63;;;;;;;23.98;100.00;101021.66;5049675;28;20478;-71
2021/06/10 11:00:54;;;;;;;11.10;8.17;;;;;;;23.16;100.00;101026.81;5058846;28;20404;-71
2021/06/10 11:03:23;;;;;;;14.60;8.40;;;;;;;22.81;100.00;101026.28;5049541;28;20925;-69
2021/06/10 11:05:48;;;;;;;14.10;8.37;;;;;;;22.69;100.00;101025.88;5043165;28;21048;-73
2021/06/10 11:08:14;;;;;;;24.27;9.10;;;;;;;22.64;100.00;101022.03;5067760;28;20415;-71
2021/06/10 11:10:39;;;;;;;14.10;8.63;;;;;;;22.60;100.00;101012.69;5059728;28;20672;-70
2021/06/10 11:13:26;;;;;;;19.00;9.47;;;;;;;22.53;100.00;101012.53;5067640;28;20257;-73